Time;durP1;ratioP1;P1;durP2;ratioP2;P2;SDS_P1;SDS_P2;PMS_P1;PMS_P2;Temp;Humidity;BMP_temperature;BMP_pressure;BME280_temperature;BME280_humidity;BME280_pressure;Samples;Min_cycle;Max_cycle;Signal;HPM_P1;HPM_P2
2023/10/03 00:00:58;;;;;;;40.47;20.20;;;18.10;99.90;;;;;;5044249;28;20094;-79
2023/10/03 00:03:24;;;;;;;36.70;20.42;;;18.10;99.90;;;;;;5041431;28;20072;-79
2023/10/03 00:05:51;;;;;;;38.67;20.30;;;17.90;99.90;;;;;;5031291;28;20060;-79
2023/10/03 00:08:18;;;;;;;41.03;20.77;;;18.10;99.90;;;;;;5032598;28;20047;-80
2023/10/03 00:10:45;;;;;;;39.15;20.15;;;18.10;99.90;;;;;;5023376;28;20053;-80
2023/10/03 00:13:12;;;;;;;41.25;20.42;;;18.10;99.90;;;;;;5024139;28;20045;-79
2023/10/03 00:15:45;;;;;;;39.30;20.05;;;18.10;99.90;;;;;;5010654;28;20053;-78
2023/10/03 00:18:12;;;;;;;40.20;20.27;;;18.10;99.90;;;;;;5044048;28;20476;-77
2023/10/03 00:20:38;;;;;;;41.38;21.15;;;18.00;99.90;;;;;;5034592;28;20140;-79
2023/10/03 00:23:04;;;;;;;38.72;20.00;;;18.10;99.90;;;;;;5025572;28;20124;-78
2023/10/03 00:25:30;;;;;;;40.83;20.52;;;18.00;99.90;;;;;;5024046;28;20125;-77
2023/10/03 00:28:00;;;;;;;43.25;20.85;;;18.00;99.90;;;;;;5022916;28;20128;-78
2023/10/03 00:30:28;;;;;;;41.17;21.90;;;18.00;99.90;;;;;;5022687;28;20092;-79
2023/10/03 00:33:02;;;;;;;41.75;21.23;;;18.00;99.90;;;;;;5025762;28;20072;-78
2023/10/03 00:35:28;;;;;;;44.20;21.08;;;18.00;99.90;;;;;;5009270;28;20044;-81
2023/10/03 00:37:53;;;;;;;41.97;21.00;;;18.00;99.90;;;;;;5022424;28;20052;-79
2023/10/03 00:42:51;;;;;;;42.58;21.55;;;18.00;99.90;;;;;;5041548;28;20111;-79
2023/10/03 00:45:21;;;;;;;41.40;21.05;;;18.00;99.90;;;;;;5043434;28;20057;-77
2023/10/03 00:47:54;;;;;;;41.67;21.00;;;18.00;99.90;;;;;;5017996;28;20790;-78
2023/10/03 00:50:23;;;;;;;42.92;20.48;;;18.00;99.90;;;;;;5028903;28;20140;-78
2023/10/03 00:52:57;;;;;;;41.28;20.80;;;18.00;99.90;;;;;;5040189;28;20081;-80
2023/10/03 00:55:26;;;;;;;38.38;20.50;;;17.90;99.90;;;;;;5043136;28;20048;-79
2023/10/03 00:58:17;;;;;;;41.25;19.77;;;18.00;99.90;;;;;;5043229;28;20055;-80
2023/10/03 01:00:44;;;;;;;40.45;19.92;;;18.00;99.90;;;;;;5022422;28;20053;-81
2023/10/03 01:03:32;;;;;;;41.80;20.65;;;18.00;99.90;;;;;;5024292;28;20120;-81
2023/10/03 01:06:08;;;;;;;40.45;20.98;;;18.00;99.90;;;;;;5043357;28;20094;-81
2023/10/03 01:08:36;;;;;;;39.80;21.35;;;18.00;99.90;;;;;;5044364;28;20128;-79
2023/10/03 01:11:15;;;;;;;41.30;20.50;;;18.00;99.90;;;;;;5024833;28;20045;-80
2023/10/03 01:13:47;;;;;;;39.55;20.20;;;17.90;99.90;;;;;;5044314;28;20388;-79
2023/10/03 01:16:20;;;;;;;42.05;21.75;;;17.90;99.90;;;;;;5042520;28;20052;-79
2023/10/03 01:18:47;;;;;;;38.65;20.35;;;17.90;99.90;;;;;;5039628;28;20057;-80
2023/10/03 01:21:13;;;;;;;44.22;22.73;;;17.90;99.90;;;;;;5038861;28;20049;-79
2023/10/03 01:23:40;;;;;;;42.78;22.30;;;17.80;99.90;;;;;;5024587;28;20045;-80
2023/10/03 01:26:09;;;;;;;36.45;20.23;;;17.80;99.90;;;;;;5024835;28;20080;-80
2023/10/03 01:28:35;;;;;;;43.00;21.08;;;17.80;99.90;;;;;;5022808;28;20049;-77
2023/10/03 01:31:01;;;;;;;42.97;21.83;;;17.80;99.90;;;;;;5021586;28;20052;-80
2023/10/03 01:33:27;;;;;;;43.10;20.65;;;17.70;99.90;;;;;;5021554;28;20064;-80
2023/10/03 01:35:53;;;;;;;41.30;21.05;;;17.70;99.90;;;;;;5042547;28;20411;-79
2023/10/03 01:38:20;;;;;;;40.00;20.65;;;17.70;99.90;;;;;;5024453;28;20059;-80
2023/10/03 01:40:51;;;;;;;37.63;19.98;;;17.70;99.90;;;;;;5023203;28;20106;-80
2023/10/03 01:43:16;;;;;;;39.63;21.40;;;17.70;99.90;;;;;;5042087;28;20053;-80
2023/10/03 01:45:42;;;;;;;42.08;20.63;;;17.60;99.90;;;;;;5041892;28;20492;-81
2023/10/03 01:48:08;;;;;;;41.78;20.55;;;17.60;99.90;;;;;;5021132;28;20041;-80
2023/10/03 01:50:36;;;;;;;40.80;20.33;;;17.60;99.90;;;;;;5020948;28;20068;-79
2023/10/03 01:53:02;;;;;;;37.90;20.20;;;17.60;99.90;;;;;;5020476;28;20500;-79
2023/10/03 01:55:28;;;;;;;41.38;19.88;;;17.60;99.90;;;;;;5044605;28;20551;-80
2023/10/03 01:57:54;;;;;;;45.78;21.27;;;17.60;99.90;;;;;;5021012;28;20136;-80
2023/10/03 02:00:26;;;;;;;41.65;20.02;;;17.50;99.90;;;;;;5023932;28;20124;-84
2023/10/03 02:03:05;;;;;;;44.90;20.50;;;17.50;99.90;;;;;;5024944;28;20051;-79
2023/10/03 02:05:33;;;;;;;38.50;19.35;;;17.50;99.90;;;;;;5025217;28;20045;-82
2023/10/03 02:10:56;;;;;;;39.97;19.88;;;17.50;99.90;;;;;;4980251;28;20082;-80
2023/10/03 02:13:21;;;;;;;38.60;19.38;;;17.50;99.90;;;;;;4997126;28;20064;-81
2023/10/03 02:15:49;;;;;;;38.20;18.77;;;17.50;99.90;;;;;;4996731;28;20050;-79
2023/10/03 02:18:19;;;;;;;39.83;19.13;;;17.50;99.90;;;;;;4980831;28;20092;-81
2023/10/03 02:20:53;;;;;;;36.20;18.45;;;17.50;99.90;;;;;;4999588;28;20086;-79
2023/10/03 02:23:22;;;;;;;37.30;18.05;;;17.50;99.90;;;;;;4991389;28;20054;-79
2023/10/03 02:25:49;;;;;;;38.08;18.33;;;17.40;99.90;;;;;;4980349;28;20050;-80
2023/10/03 02:28:16;;;;;;;37.55;17.85;;;17.40;99.90;;;;;;4980392;28;20116;-82
2023/10/03 02:30:44;;;;;;;38.30;18.45;;;17.40;99.90;;;;;;4998879;28;20046;-82
2023/10/03 02:33:12;;;;;;;39.80;18.92;;;17.40;99.90;;;;;;4999786;28;20053;-80
2023/10/03 02:35:39;;;;;;;39.03;17.83;;;17.40;99.90;;;;;;4998204;28;20058;-80
2023/10/03 02:38:10;;;;;;;39.60;17.98;;;17.40;99.90;;;;;;4996071;28;20161;-81
2023/10/03 02:40:36;;;;;;;37.10;18.08;;;17.40;99.90;;;;;;4996138;28;20164;-81
2023/10/03 02:43:02;;;;;;;37.28;18.23;;;17.40;99.90;;;;;;4982475;28;20899;-81
2023/10/03 02:45:28;;;;;;;37.33;17.73;;;17.40;99.90;;;;;;4999122;28;20057;-76
2023/10/03 02:47:55;;;;;;;35.83;16.83;;;17.50;99.90;;;;;;5011444;28;20209;-83
2023/10/03 02:50:26;;;;;;;41.25;18.10;;;17.50;99.90;;;;;;5020232;28;20091;-81
2023/10/03 02:52:55;;;;;;;37.70;16.98;;;17.50;99.90;;;;;;5039010;28;20477;-81
2023/10/03 02:55:22;;;;;;;40.92;16.42;;;17.60;99.90;;;;;;5041485;28;20689;-81
2023/10/03 02:57:48;;;;;;;35.63;16.67;;;17.60;99.90;;;;;;5041027;28;20484;-81
2023/10/03 03:00:15;;;;;;;34.85;16.50;;;17.60;99.90;;;;;;5038221;28;20041;-80
2023/10/03 03:02:47;;;;;;;35.13;16.92;;;17.60;99.90;;;;;;5037916;28;20171;-81
2023/10/03 03:05:17;;;;;;;35.72;17.08;;;17.70;99.90;;;;;;5039379;28;20128;-82
2023/10/03 03:07:47;;;;;;;32.75;16.17;;;17.70;99.90;;;;;;5041131;28;20045;-79
2023/10/03 03:10:17;;;;;;;34.40;17.13;;;17.70;99.90;;;;;;5023525;28;20182;-81
2023/10/03 03:12:48;;;;;;;41.30;17.02;;;17.70;99.90;;;;;;5022744;28;20053;-82
2023/10/03 03:15:23;;;;;;;39.58;17.75;;;17.70;99.90;;;;;;5040415;28;20057;-80
2023/10/03 03:17:50;;;;;;;36.08;16.65;;;17.70;99.90;;;;;;5038019;28;20046;-80
2023/10/03 03:20:27;;;;;;;35.55;15.75;;;17.70;99.90;;;;;;5038056;28;20042;-80
2023/10/03 03:22:53;;;;;;;34.00;15.55;;;17.70;99.90;;;;;;5041112;28;20083;-82
2023/10/03 03:25:42;;;;;;;34.67;15.93;;;17.70;99.90;;;;;;5022866;28;20052;-81
2023/10/03 03:28:12;;;;;;;34.88;15.43;;;17.70;99.90;;;;;;5036820;28;20140;-80
2023/10/03 03:30:46;;;;;;;32.10;16.13;;;17.70;99.90;;;;;;5039758;28;20049;-81
2023/10/03 03:33:20;;;;;;;36.38;16.27;;;17.40;99.90;;;;;;5039768;28;20049;-83
2023/10/03 03:35:47;;;;;;;33.10;15.63;;;17.80;99.90;;;;;;5040846;28;20404;-80
2023/10/03 03:38:20;;;;;;;34.47;16.05;;;17.80;99.90;;;;;;5041228;28;20049;-79
2023/10/03 03:40:53;;;;;;;36.47;16.60;;;17.80;99.90;;;;;;5039105;28;20052;-82
2023/10/03 03:43:19;;;;;;;35.15;16.83;;;17.90;99.90;;;;;;5038125;28;20096;-82
2023/10/03 03:45:45;;;;;;;31.52;16.15;;;17.90;99.90;;;;;;5042338;28;20077;-82
2023/10/03 03:48:11;;;;;;;32.58;15.25;;;17.90;99.90;;;;;;5044505;28;20036;-82
2023/10/03 03:50:38;;;;;;;33.00;15.52;;;18.00;99.90;;;;;;5044511;28;20095;-82
2023/10/03 03:53:04;;;;;;;33.50;16.50;;;18.00;99.90;;;;;;5042027;28;20052;-82
2023/10/03 03:55:30;;;;;;;30.55;14.55;;;18.10;99.90;;;;;;5023294;28;20041;-82
2023/10/03 03:58:05;;;;;;;34.80;15.27;;;18.10;99.90;;;;;;5041536;28;20136;-81
2023/10/03 04:00:32;;;;;;;;;;;18.10;99.90;;;;;;5026956;28;20041;-83
2023/10/03 04:03:08;;;;;;;32.40;16.10;;;18.10;99.90;;;;;;5043241;28;19924;-81
2023/10/03 04:05:34;;;;;;;35.45;16.10;;;18.20;99.90;;;;;;5044367;28;20446;-80
2023/10/03 04:08:00;;;;;;;33.85;15.20;;;18.20;99.90;;;;;;5026205;28;20040;-82
2023/10/03 04:10:26;;;;;;;31.98;14.70;;;18.20;99.90;;;;;;5034752;28;20137;-82
2023/10/03 04:12:54;;;;;;;33.58;15.73;;;18.10;99.90;;;;;;5046699;28;20045;-82
2023/10/03 04:15:20;;;;;;;35.67;15.23;;;18.20;99.90;;;;;;5024508;28;20050;-82
2023/10/03 04:17:48;;;;;;;36.05;16.13;;;18.10;99.90;;;;;;5044143;28;20400;-82
2023/10/03 04:20:35;;;;;;;35.22;15.95;;;18.10;99.90;;;;;;5044119;28;20048;-82
2023/10/03 04:22:59;;;;;;;35.47;15.75;;;18.10;99.90;;;;;;5025770;28;20107;-81
2023/10/03 04:25:26;;;;;;;34.30;15.32;;;18.10;99.90;;;;;;5049181;28;20488;-82
2023/10/03 04:27:53;;;;;;;34.17;14.63;;;18.00;99.90;;;;;;5041080;28;20033;-80
2023/10/03 04:30:23;;;;;;;35.80;14.77;;;18.10;99.90;;;;;;5040420;28;20053;-81
2023/10/03 04:32:49;;;;;;;37.78;14.98;;;18.00;99.90;;;;;;5025891;28;20479;-80
2023/10/03 04:35:17;;;;;;;33.85;15.43;;;18.00;99.90;;;;;;5045733;28;20096;-78
2023/10/03 04:37:52;;;;;;;36.53;14.82;;;18.10;99.90;;;;;;5042503;28;20049;-79
2023/10/03 04:40:22;;;;;;;29.50;15.02;;;18.10;99.90;;;;;;5043599;28;20041;-78
2023/10/03 04:43:07;;;;;;;33.90;15.52;;;18.20;99.90;;;;;;5023699;28;20056;-77
2023/10/03 04:45:35;;;;;;;;;;;18.20;99.90;;;;;;5040781;28;20076;-78
2023/10/03 04:48:01;;;;;;;31.45;14.93;;;18.20;99.90;;;;;;5042965;28;20011;-81
2023/10/03 04:50:27;;;;;;;39.80;15.32;;;18.30;99.90;;;;;;5043615;28;20124;-82
2023/10/03 04:52:54;;;;;;;34.10;14.90;;;18.30;99.90;;;;;;5024421;28;20463;-79
2023/10/03 04:55:22;;;;;;;33.75;15.27;;;18.40;99.90;;;;;;5039221;28;20053;-80
2023/10/03 04:57:51;;;;;;;30.25;13.57;;;18.40;99.90;;;;;;5039292;28;20076;-77
2023/10/03 05:00:22;;;;;;;34.00;14.23;;;18.40;99.90;;;;;;5022666;28;20106;-82
2023/10/03 05:02:49;;;;;;;31.23;13.75;;;18.50;99.90;;;;;;5025245;28;20045;-76
2023/10/03 05:05:20;;;;;;;39.20;14.80;;;18.50;99.90;;;;;;5042433;28;20049;-82
2023/10/03 05:07:48;;;;;;;33.10;13.93;;;18.60;99.90;;;;;;5024602;28;20078;-78
2023/10/03 05:10:14;;;;;;;28.05;13.43;;;18.60;99.90;;;;;;5013364;28;20063;-82
2023/10/03 05:12:40;;;;;;;28.20;12.82;;;18.70;99.90;;;;;;5026439;28;20037;-79
2023/10/03 05:15:09;;;;;;;37.97;12.93;;;18.70;99.90;;;;;;5040062;28;20446;-81
2023/10/03 05:17:38;;;;;;;30.92;14.00;;;18.80;99.90;;;;;;5021624;28;20053;-78
2023/10/03 05:20:05;;;;;;;29.83;12.65;;;18.80;99.90;;;;;;5019426;28;20725;-83
2023/10/03 05:22:33;;;;;;;31.50;13.07;;;18.90;99.90;;;;;;5046190;28;20040;-80
2023/10/03 05:25:03;;;;;;;32.58;12.32;;;18.90;99.90;;;;;;5021489;28;20056;-77
2023/10/03 05:27:29;;;;;;;33.38;13.93;;;19.00;99.90;;;;;;5042743;28;20377;-80
2023/10/03 05:30:05;;;;;;;33.50;13.30;;;19.00;99.90;;;;;;5024589;28;20051;-80
2023/10/03 05:32:31;;;;;;;36.08;14.27;;;19.00;99.90;;;;;;5025253;28;20124;-80
2023/10/03 05:34:58;;;;;;;35.05;14.23;;;19.10;99.90;;;;;;5042676;28;20459;-80
2023/10/03 05:37:25;;;;;;;36.92;13.65;;;19.10;99.90;;;;;;5040827;28;20049;-80
2023/10/03 05:39:51;;;;;;;37.38;15.70;;;19.10;99.90;;;;;;5039091;28;20045;-79
2023/10/03 05:42:20;;;;;;;37.42;13.85;;;19.10;99.90;;;;;;5021454;28;20152;-80
2023/10/03 05:44:46;;;;;;;32.13;14.48;;;19.00;99.90;;;;;;5024490;28;20060;-78
2023/10/03 05:47:12;;;;;;;38.90;16.02;;;19.10;99.90;;;;;;5042115;28;20049;-79
2023/10/03 05:49:38;;;;;;;36.13;15.40;;;19.10;99.90;;;;;;4999652;28;20099;-76
2023/10/03 05:52:06;;;;;;;37.63;15.32;;;19.10;99.90;;;;;;5040821;28;20052;-78
2023/10/03 05:54:32;;;;;;;36.60;14.98;;;19.10;99.90;;;;;;5023330;28;20098;-81
2023/10/03 05:56:58;;;;;;;34.47;15.20;;;19.10;99.90;;;;;;5021214;28;20053;-78
2023/10/03 05:59:24;;;;;;;42.80;15.88;;;19.10;99.90;;;;;;5039224;28;20049;-82
2023/10/03 06:01:50;;;;;;;40.70;15.45;;;19.10;99.90;;;;;;5041198;28;20447;-79
2023/10/03 06:04:16;;;;;;;38.78;15.30;;;19.10;99.90;;;;;;5041842;28;20148;-81
2023/10/03 06:06:43;;;;;;;31.45;14.88;;;19.10;99.90;;;;;;5006860;28;20044;-80
2023/10/03 06:09:11;;;;;;;40.38;15.20;;;19.10;99.90;;;;;;5038519;28;20037;-82
2023/10/03 06:11:38;;;;;;;32.63;14.25;;;19.10;99.90;;;;;;5038717;28;20041;-77
2023/10/03 06:14:04;;;;;;;41.45;14.65;;;19.10;99.90;;;;;;5022932;28;20041;-80
2023/10/03 06:16:30;;;;;;;36.42;13.68;;;19.10;99.90;;;;;;5041543;28;20040;-81
2023/10/03 06:18:56;;;;;;;36.13;14.88;;;19.10;99.90;;;;;;5023492;28;20045;-80
2023/10/03 06:21:23;;;;;;;36.38;13.50;;;19.00;99.90;;;;;;5038593;28;20041;-83
2023/10/03 06:23:50;;;;;;;34.60;13.57;;;19.00;99.90;;;;;;5038498;28;20057;-79
2023/10/03 06:26:20;;;;;;;29.58;12.73;;;19.00;99.90;;;;;;5023122;28;20056;-80
2023/10/03 06:28:49;;;;;;;31.00;12.18;;;18.90;99.90;;;;;;5041618;28;20041;-81
2023/10/03 06:31:15;;;;;;;34.78;11.63;;;18.90;99.90;;;;;;5039729;28;20048;-80
2023/10/03 06:33:44;;;;;;;26.08;10.68;;;18.90;99.90;;;;;;5038397;28;20043;-77
2023/10/03 06:36:12;;;;;;;28.92;11.38;;;18.80;99.90;;;;;;5019788;28;20041;-78
2023/10/03 06:38:38;;;;;;;27.58;10.00;;;18.80;99.90;;;;;;5038292;28;20053;-79
2023/10/03 06:41:05;;;;;;;25.60;9.23;;;18.80;99.90;;;;;;5020321;28;20042;-80
2023/10/03 06:43:31;;;;;;;28.25;9.63;;;18.80;99.90;;;;;;5022019;28;20159;-79
2023/10/03 06:45:57;;;;;;;30.45;9.20;;;18.70;99.90;;;;;;5041189;28;20033;-78
2023/10/03 06:48:24;;;;;;;25.58;9.30;;;18.70;99.90;;;;;;5022801;28;20052;-80
2023/10/03 06:50:50;;;;;;;26.90;10.32;;;18.70;99.90;;;;;;5020231;28;20041;-79
2023/10/03 06:53:18;;;;;;;27.88;9.27;;;18.70;99.90;;;;;;5038112;28;20052;-77
2023/10/03 06:55:44;;;;;;;22.33;9.18;;;18.60;99.90;;;;;;5040557;28;20064;-78
2023/10/03 06:58:12;;;;;;;26.05;8.32;;;18.60;99.90;;;;;;5023187;28;20041;-78
2023/10/03 07:00:39;;;;;;;24.33;8.80;;;18.50;99.90;;;;;;5022327;28;20135;-79
2023/10/03 07:03:05;;;;;;;25.08;8.18;;;18.50;99.90;;;;;;5019982;28;20056;-81
2023/10/03 07:05:32;;;;;;;24.58;8.10;;;18.40;99.90;;;;;;5020047;28;20092;-78
2023/10/03 07:07:58;;;;;;;26.23;8.15;;;18.40;99.90;;;;;;5022141;28;20064;-77
2023/10/03 07:10:25;;;;;;;21.45;7.50;;;18.30;99.90;;;;;;5041184;28;20053;-78
2023/10/03 07:12:51;;;;;;;21.90;7.18;;;18.30;99.90;;;;;;5040001;28;20053;-78
2023/10/03 07:15:18;;;;;;;21.77;6.60;;;18.30;99.90;;;;;;5005532;28;20057;-78
2023/10/03 07:17:44;;;;;;;21.25;7.60;;;18.20;99.90;;;;;;5045218;28;20056;-78
2023/10/03 07:20:12;;;;;;;19.33;6.55;;;18.10;99.90;;;;;;5042106;28;20049;-78
2023/10/03 07:22:39;;;;;;;18.52;6.70;;;18.10;99.90;;;;;;5023818;28;20077;-77
2023/10/03 07:25:08;;;;;;;25.08;7.45;;;18.10;99.90;;;;;;5042981;28;20119;-79
2023/10/03 07:27:34;;;;;;;23.27;7.38;;;18.10;99.90;;;;;;5010473;28;20156;-79
2023/10/03 07:30:03;;;;;;;34.30;8.73;;;18.00;99.90;;;;;;5026908;28;20049;-79
2023/10/03 07:32:34;;;;;;;27.80;8.55;;;18.00;99.90;;;;;;5026800;28;20564;-79
2023/10/03 07:35:00;;;;;;;34.97;9.57;;;17.90;99.90;;;;;;5026716;28;20053;-79
2023/10/03 07:37:26;;;;;;;27.30;7.75;;;17.90;99.90;;;;;;5024367;28;20785;-79
2023/10/03 07:39:52;;;;;;;23.30;7.22;;;17.70;99.90;;;;;;5023533;28;20049;-80
2023/10/03 07:42:19;;;;;;;23.67;6.63;;;17.70;99.90;;;;;;5041751;28;20455;-80
2023/10/03 07:44:44;;;;;;;20.13;5.68;;;17.50;99.90;;;;;;5026516;28;20060;-80
2023/10/03 07:47:12;;;;;;;19.50;5.70;;;17.50;99.90;;;;;;5026635;28;20484;-80
2023/10/03 07:49:41;;;;;;;16.77;4.70;;;17.50;99.90;;;;;;5023515;28;20060;-81
2023/10/03 07:52:06;;;;;;;21.05;6.38;;;17.50;99.90;;;;;;5023225;28;20044;-80
2023/10/03 07:54:33;;;;;;;23.63;6.00;;;17.40;99.90;;;;;;5024132;28;20404;-81
2023/10/03 07:57:03;;;;;;;21.55;6.18;;;17.40;99.90;;;;;;5044186;28;20138;-79
2023/10/03 07:59:30;;;;;;;18.90;5.13;;;17.40;99.90;;;;;;5014911;28;20120;-79
2023/10/03 08:01:57;;;;;;;18.95;4.60;;;17.30;99.90;;;;;;5044650;28;20053;-79
2023/10/03 08:04:23;;;;;;;14.90;4.30;;;17.30;99.90;;;;;;5044060;28;20110;-81
2023/10/03 08:06:49;;;;;;;14.43;4.43;;;17.30;99.90;;;;;;5024517;28;20056;-79
2023/10/03 08:09:15;;;;;;;14.07;4.15;;;17.20;99.90;;;;;;5040970;28;20121;-79
2023/10/03 08:11:46;;;;;;;16.40;3.50;;;17.10;99.90;;;;;;5023318;28;20140;-76
2023/10/03 08:14:13;;;;;;;19.33;3.08;;;17.00;99.90;;;;;;5031182;28;20384;-78
2023/10/03 08:16:48;;;;;;;17.52;3.28;;;16.90;99.90;;;;;;5023083;28;20160;-78
2023/10/03 08:19:21;;;;;;;17.33;3.05;;;16.90;99.90;;;;;;5043904;28;20127;-78
2023/10/03 08:21:52;;;;;;;16.23;2.28;;;16.90;99.90;;;;;;5044295;28;20076;-78
2023/10/03 08:24:19;;;;;;;14.95;2.40;;;16.80;99.90;;;;;;5040846;28;20135;-80
2023/10/03 08:26:50;;;;;;;10.57;2.30;;;16.80;99.90;;;;;;5041043;28;20042;-78
2023/10/03 08:29:23;;;;;;;9.68;1.52;;;16.70;99.90;;;;;;5024822;28;20049;-80
2023/10/03 08:31:50;;;;;;;11.93;2.58;;;16.70;99.90;;;;;;5043810;28;20041;-78
2023/10/03 08:34:19;;;;;;;9.15;1.70;;;16.70;99.90;;;;;;5041858;28;20056;-80
2023/10/03 08:36:45;;;;;;;11.30;1.52;;;16.70;99.90;;;;;;5022699;28;20048;-80
2023/10/03 08:39:14;;;;;;;7.55;1.50;;;16.60;99.90;;;;;;5040420;28;20059;-79
2023/10/03 08:41:47;;;;;;;8.75;1.98;;;16.60;99.90;;;;;;5025463;28;20049;-80
2023/10/03 08:44:14;;;;;;;8.85;1.45;;;16.60;99.90;;;;;;5024967;28;20060;-80
2023/10/03 08:46:47;;;;;;;4.97;1.27;;;16.50;99.90;;;;;;5039732;28;20423;-79
2023/10/03 08:49:18;;;;;;;8.90;1.00;;;16.60;99.90;;;;;;5021686;28;20057;-79
2023/10/03 08:51:47;;;;;;;10.48;1.50;;;16.50;99.90;;;;;;5042183;28;20056;-75
2023/10/03 08:54:13;;;;;;;7.43;1.23;;;16.60;99.90;;;;;;5024542;28;20056;-78
2023/10/03 08:56:42;;;;;;;8.45;1.40;;;16.60;99.90;;;;;;5040662;28;20048;-76
2023/10/03 08:59:15;;;;;;;9.40;1.50;;;16.50;99.90;;;;;;5038973;28;20397;-78
2023/10/03 09:01:45;;;;;;;8.93;1.00;;;16.40;99.90;;;;;;5040340;28;20037;-78
2023/10/03 09:04:22;;;;;;;7.78;0.90;;;16.30;99.90;;;;;;5042099;28;20399;-78
2023/10/03 09:06:49;;;;;;;5.15;0.68;;;16.20;99.90;;;;;;5022838;28;20131;-80
2023/10/03 09:09:16;;;;;;;6.90;0.77;;;16.00;99.90;;;;;;5021014;28;20049;-80
2023/10/03 09:11:44;;;;;;;8.40;1.00;;;15.90;99.90;;;;;;5020945;28;20150;-76
2023/10/03 09:14:19;;;;;;;7.05;0.63;;;15.90;99.90;;;;;;5032674;28;20037;-78
2023/10/03 09:16:50;;;;;;;6.50;0.70;;;15.80;99.90;;;;;;5024410;28;20057;-79
2023/10/03 09:19:26;;;;;;;5.30;0.65;;;15.70;99.90;;;;;;5024394;28;20037;-77
2023/10/03 09:21:54;;;;;;;3.35;0.63;;;15.70;99.90;;;;;;5023833;28;20049;-81
2023/10/03 09:24:22;;;;;;;7.80;0.63;;;15.60;99.90;;;;;;5020443;28;20048;-79
2023/10/03 09:26:54;;;;;;;4.88;0.73;;;15.50;99.90;;;;;;5020395;28;20519;-80
2023/10/03 09:29:32;;;;;;;4.47;0.50;;;15.50;99.90;;;;;;5022875;28;20083;-83
2023/10/03 09:32:00;;;;;;;4.38;0.40;;;15.50;99.90;;;;;;5024082;28;20037;-78
2023/10/03 09:34:33;;;;;;;7.20;0.70;;;15.40;99.90;;;;;;5020168;28;20455;-78
2023/10/03 09:37:02;;;;;;;6.43;0.60;;;15.40;99.90;;;;;;5038446;28;20394;-80
2023/10/03 09:39:39;;;;;;;2.92;0.40;;;15.40;99.90;;;;;;5030516;28;20053;-77
2023/10/03 09:42:16;;;;;;;4.40;0.60;;;15.30;99.90;;;;;;4983435;28;1075635;-79
2023/10/03 09:44:48;;;;;;;4.70;0.65;;;15.40;99.90;;;;;;5038124;28;20049;-78
2023/10/03 09:47:17;;;;;;;7.68;1.00;;;15.40;99.90;;;;;;5037693;28;20060;-78
2023/10/03 09:49:43;;;;;;;5.07;0.68;;;15.40;99.90;;;;;;5030693;28;20144;-81
2023/10/03 09:52:17;;;;;;;6.72;0.80;;;15.40;99.90;;;;;;5021817;28;20048;-78
2023/10/03 09:54:44;;;;;;;5.45;0.80;;;15.40;99.90;;;;;;5020076;28;20412;-79
2023/10/03 09:57:16;;;;;;;6.85;0.68;;;15.50;99.90;;;;;;5018007;28;20500;-83
2023/10/03 09:59:46;;;;;;;2.15;0.70;;;15.40;99.90;;;;;;5020891;28;20057;-79
2023/10/03 10:02:28;;;;;;;2.95;0.80;;;15.40;99.90;;;;;;5020277;28;20409;-78
2023/10/03 10:04:59;;;;;;;5.47;0.98;;;15.30;99.90;;;;;;5019076;28;20057;-80
2023/10/03 10:07:35;;;;;;;5.57;0.90;;;15.30;99.90;;;;;;5003735;28;20048;-79
2023/10/03 10:10:07;;;;;;;5.85;0.70;;;15.40;99.90;;;;;;5021608;28;20045;-79
2023/10/03 10:12:37;;;;;;;5.63;0.88;;;15.40;99.90;;;;;;5020465;28;20053;-79
2023/10/03 10:17:56;;;;;;;6.57;0.90;;;15.50;99.90;;;;;;5018564;28;20057;-79
2023/10/03 10:20:37;;;;;;;5.30;0.93;;;15.50;99.90;;;;;;5014791;28;20471;-79
2023/10/03 10:23:04;;;;;;;5.22;1.08;;;15.50;99.90;;;;;;5011828;28;20288;-79
2023/10/03 10:25:41;;;;;;;8.05;0.93;;;15.60;99.90;;;;;;5020416;28;20081;-80
2023/10/03 10:28:26;;;;;;;6.18;1.00;;;15.60;99.90;;;;;;5019214;28;20049;-78
2023/10/03 10:31:10;;;;;;;10.00;1.45;;;15.60;99.90;;;;;;5017534;28;20108;-80
2023/10/03 10:33:36;;;;;;;5.72;1.40;;;15.70;99.90;;;;;;5034826;28;20481;-81
2023/10/03 10:36:08;;;;;;;6.65;1.00;;;15.70;99.90;;;;;;5033856;28;20052;-79
2023/10/03 10:38:34;;;;;;;4.57;0.90;;;15.60;99.90;;;;;;5020477;28;20510;-81
2023/10/03 10:41:21;;;;;;;9.15;0.90;;;15.70;99.90;;;;;;5020156;28;20038;-79
2023/10/03 10:44:13;;;;;;;4.07;0.63;;;15.70;99.90;;;;;;5021301;28;20061;-79
2023/10/03 10:46:44;;;;;;;9.25;0.77;;;15.70;99.90;;;;;;5000267;28;20112;-80
2023/10/03 10:49:33;;;;;;;5.97;0.95;;;15.60;99.90;;;;;;5016656;28;20037;-82
2023/10/03 10:52:09;;;;;;;4.07;0.70;;;15.60;99.90;;;;;;5023423;28;20049;-80
2023/10/03 10:54:39;;;;;;;5.18;1.30;;;15.60;99.90;;;;;;5017858;28;20077;-79
2023/10/03 10:57:06;;;;;;;6.13;1.02;;;15.50;99.90;;;;;;5018542;28;20046;-81
2023/10/03 10:59:40;;;;;;;8.30;1.65;;;15.50;99.90;;;;;;5017531;28;20045;-81
2023/10/03 11:02:22;;;;;;;7.70;1.20;;;15.40;99.90;;;;;;5020424;28;20581;-83
2023/10/03 11:04:59;;;;;;;8.20;1.00;;;15.40;99.90;;;;;;5027410;28;20405;-79
2023/10/03 11:07:26;;;;;;;6.53;1.05;;;15.30;99.90;;;;;;5021738;28;20046;-81
2023/10/03 11:09:54;;;;;;;5.53;1.02;;;15.30;99.90;;;;;;5019921;28;20057;-80
2023/10/03 11:12:28;;;;;;;5.53;1.30;;;15.30;99.90;;;;;;5021258;28;20046;-81
2023/10/03 11:14:55;;;;;;;10.82;2.28;;;15.30;99.90;;;;;;5020351;28;20519;-79
2023/10/03 11:17:22;;;;;;;8.07;1.50;;;15.30;99.90;;;;;;5016851;28;20057;-82
2023/10/03 11:19:53;;;;;;;9.57;1.58;;;15.30;99.90;;;;;;5017419;28;20053;-82
2023/10/03 11:22:18;;;;;;;9.63;2.05;;;15.20;99.90;;;;;;5020972;28;20465;-80
2023/10/03 11:24:45;;;;;;;6.00;1.42;;;15.20;99.90;;;;;;5021360;28;20037;-81
2023/10/03 11:27:26;;;;;;;10.70;2.15;;;15.20;99.90;;;;;;5018208;28;20049;-83
2023/10/03 11:29:52;;;;;;;8.35;2.08;;;15.20;99.90;;;;;;5018565;28;20432;-81
2023/10/03 11:32:32;;;;;;;8.95;2.20;;;15.20;99.90;;;;;;5020044;28;20068;-81
2023/10/03 11:35:12;;;;;;;8.07;2.33;;;15.10;99.90;;;;;;5021302;28;20033;-81
2023/10/03 11:37:44;;;;;;;7.30;1.90;;;15.10;99.90;;;;;;5020850;28;20184;-83
2023/10/03 11:40:15;;;;;;;9.32;2.00;;;15.00;99.90;;;;;;5019876;28;20102;-81
2023/10/03 11:43:02;;;;;;;8.52;2.50;;;14.90;99.90;;;;;;5031219;28;20087;-81
2023/10/03 11:45:29;;;;;;;9.85;2.78;;;14.90;99.90;;;;;;5039324;28;20056;-82
2023/10/03 11:48:19;;;;;;;7.97;1.95;;;14.90;99.90;;;;;;5037892;28;20041;-81
2023/10/03 11:50:45;;;;;;;10.25;2.58;;;14.90;99.90;;;;;;5049513;28;20106;-81
2023/10/03 11:53:12;;;;;;;7.28;2.33;;;14.80;99.90;;;;;;5006360;28;20155;-82
2023/10/03 11:55:40;;;;;;;7.70;2.10;;;14.80;99.90;;;;;;5021280;28;20084;-79
2023/10/03 11:58:08;;;;;;;12.50;2.58;;;14.80;99.90;;;;;;5037596;28;20473;-79
2023/10/03 12:00:35;;;;;;;11.35;2.17;;;14.60;99.90;;;;;;5020096;28;20128;-81
2023/10/03 12:03:04;;;;;;;6.75;2.13;;;14.60;99.90;;;;;;5023377;28;20059;-81
2023/10/03 12:05:30;;;;;;;9.60;2.03;;;14.50;99.90;;;;;;5025327;28;20053;-81
2023/10/03 12:07:58;;;;;;;9.65;2.25;;;14.50;99.90;;;;;;5023620;28;20127;-77
2023/10/03 12:10:25;;;;;;;6.68;1.80;;;14.50;99.90;;;;;;5023179;28;20061;-77
2023/10/03 12:12:51;;;;;;;6.00;1.65;;;14.30;99.90;;;;;;5042041;28;20069;-76
2023/10/03 12:15:17;;;;;;;12.15;1.95;;;14.40;99.90;;;;;;5044056;28;20048;-77
2023/10/03 12:17:48;;;;;;;10.07;1.80;;;14.30;99.90;;;;;;5026268;28;20114;-79
2023/10/03 12:20:16;;;;;;;9.75;2.00;;;14.30;99.90;;;;;;5026166;28;20071;-77
2023/10/03 12:22:56;;;;;;;7.88;1.90;;;14.40;99.90;;;;;;5026336;28;20526;-77
2023/10/03 12:25:27;;;;;;;6.93;2.22;;;14.30;99.90;;;;;;5026704;28;20113;-77
2023/10/03 12:27:53;;;;;;;7.30;2.00;;;14.40;99.90;;;;;;5026084;28;20496;-77
2023/10/03 12:30:19;;;;;;;9.23;1.65;;;14.50;99.90;;;;;;5023546;28;20814;-76
2023/10/03 12:32:49;;;;;;;12.30;2.72;;;14.50;99.90;;;;;;5023131;28;20042;-77
2023/10/03 12:35:16;;;;;;;8.98;1.90;;;14.60;99.90;;;;;;5032807;28;20048;-78
2023/10/03 12:37:46;;;;;;;11.80;2.03;;;14.60;99.90;;;;;;5047708;28;20077;-77
2023/10/03 12:40:16;;;;;;;7.25;1.67;;;14.80;99.90;;;;;;5006644;28;20061;-78
2023/10/03 12:42:51;;;;;;;7.03;2.35;;;14.80;99.90;;;;;;5043354;28;20106;-76
2023/10/03 12:45:20;;;;;;;11.45;2.30;;;14.90;99.90;;;;;;5025645;28;20052;-76
2023/10/03 12:47:47;;;;;;;11.35;2.55;;;14.90;99.90;;;;;;5022703;28;20116;-76
2023/10/03 12:50:21;;;;;;;6.13;2.00;;;14.90;99.90;;;;;;5022374;28;20179;-79
2023/10/03 12:52:48;;;;;;;10.23;2.28;;;14.90;99.90;;;;;;5030937;28;20404;-80
2023/10/03 12:55:15;;;;;;;9.98;2.35;;;14.90;99.90;;;;;;5021946;28;20053;-78